This is the latest recevied weather packets stored in our database for station/object EA4TN. If no packets are shown the sender has not sent any weather packets the latest 10 day(s).
| Time | Temp. | Humidity | Pressure | Rain* | Wind** | Luminosity | Snow |
|---|---|---|---|---|---|---|---|
| 1777790417 | 13.33° C | 92% | 1013.6 hPa | 0.76 mm | - | - | - |
| 1777789817 | 13.33° C | 91% | 1013.6 hPa | 0.76 mm | - | - | - |
| 1777789217 | 13.89° C | 90% | 1013.6 hPa | 0.76 mm | - | - | - |
| 1777788617 | 13.89° C | 90% | 1013.5 hPa | 0.51 mm | - | - | - |
| 1777785617 | 13.33° C | 89% | 1013.3 hPa | 0 mm | - | - | - |
| 1777771837 | 13.89° C | 87% | 1014.4 hPa | 0 mm | - | - | - |
| 1777770017 | 13.89° C | 88% | 1014.6 hPa | 0 mm | - | - | - |
| 1777768817 | 14.44° C | 87% | 1014.9 hPa | 0 mm | - | - | - |
| 1777765816 | 14.44° C | 85% | 1014.9 hPa | 0 mm | - | - | - |
| 1777764617 | 14.44° C | 88% | 1015.1 hPa | 0.76 mm | - | - | - |
| 1777763417 | 15° C | 86% | 1015 hPa | 0.76 mm | - | - | - |
| 1777762837 | 15° C | 85% | 1015.2 hPa | 0.76 mm | - | - | - |
| 1777762217 | 15.56° C | 84% | 1015.5 hPa | 0.76 mm | - | - | - |
| 1777759217 | 15.56° C | 80% | 1015.3 hPa | 0 mm | - | - | - |
| 1777757417 | 15.56° C | 76% | 1015.1 hPa | 0 mm | - | - | - |
| 1777753237 | 16.11° C | 72% | 1014.6 hPa | 0 mm | - | - | - |
| 1777749037 | 17.78° C | 63% | 1014.2 hPa | 0 mm | - | - | - |
| 1777748437 | 17.78° C | 62% | 1014.1 hPa | 0 mm | - | - | - |
| 1777736417 | 21.67° C | 55% | 1014.7 hPa | 0 mm | - | - | - |
| 1777735217 | 22.22° C | 55% | 1014.9 hPa | 0 mm | - | - | - |
| 1777734617 | 21.67° C | 57% | 1014.9 hPa | 0 mm | - | - | - |
| 1777730417 | 19.44° C | 70% | 1015.7 hPa | 0 mm | - | - | - |
| 1777728637 | 18.33° C | 70% | 1016 hPa | 0 mm | - | - | - |
| 1777726217 | 20.56° C | 62% | 1016.4 hPa | 0 mm | - | - | - |
| 1777723237 | 19.44° C | 68% | 1017.1 hPa | 0 mm | - | - | - |
* Rain latest hour (hover to see other rain measurements)
** Current wind speed in m/s (hover to see current wind gust speed)